sensor_id;sensor_type;location;lat;lon;timestamp;pressure;altitude;pressure_sealevel;temperature;humidity
69058;BME280;56128;37.534;-122.308;2023-06-04T00:00:46;100985.44;;;23.22;61.24
69058;BME280;56128;37.534;-122.308;2023-06-04T00:03:13;100988.53;;;23.18;60.17
69058;BME280;56128;37.534;-122.308;2023-06-04T00:05:39;100985.31;;;23.15;60.34
69058;BME280;56128;37.534;-122.308;2023-06-04T00:08:05;100973.47;;;23.08;60.76
69058;BME280;56128;37.534;-122.308;2023-06-04T00:10:31;100969.59;;;22.95;61.44
69058;BME280;56128;37.534;-122.308;2023-06-04T00:13:01;100975.50;;;22.99;61.73
69058;BME280;56128;37.534;-122.308;2023-06-04T00:15:27;100979.91;;;23.00;61.26
69058;BME280;56128;37.534;-122.308;2023-06-04T00:17:53;100972.38;;;23.02;59.63
69058;BME280;56128;37.534;-122.308;2023-06-04T00:20:19;100974.28;;;23.01;61.89
69058;BME280;56128;37.534;-122.308;2023-06-04T00:22:46;100968.16;;;22.99;62.07
69058;BME280;56128;37.534;-122.308;2023-06-04T00:25:12;100965.75;;;22.90;62.88
69058;BME280;56128;37.534;-122.308;2023-06-04T00:27:38;100970.53;;;22.88;62.69
69058;BME280;56128;37.534;-122.308;2023-06-04T00:30:06;100961.06;;;22.83;62.86
69058;BME280;56128;37.534;-122.308;2023-06-04T00:32:33;100952.25;;;22.81;63.03
69058;BME280;56128;37.534;-122.308;2023-06-04T00:34:59;100958.47;;;22.75;61.36
69058;BME280;56128;37.534;-122.308;2023-06-04T00:37:27;100955.19;;;22.65;60.42
69058;BME280;56128;37.534;-122.308;2023-06-04T00:39:53;100961.81;;;22.56;60.77
69058;BME280;56128;37.534;-122.308;2023-06-04T00:42:20;100959.53;;;22.59;60.76
69058;BME280;56128;37.534;-122.308;2023-06-04T00:44:47;100954.19;;;22.51;61.41
69058;BME280;56128;37.534;-122.308;2023-06-04T00:47:17;100954.84;;;22.53;62.51
69058;BME280;56128;37.534;-122.308;2023-06-04T00:49:46;100951.75;;;22.41;61.63
69058;BME280;56128;37.534;-122.308;2023-06-04T00:52:14;100946.69;;;22.38;62.98
69058;BME280;56128;37.534;-122.308;2023-06-04T00:54:41;100944.13;;;22.36;63.91
69058;BME280;56128;37.534;-122.308;2023-06-04T00:57:08;100951.44;;;22.36;63.52
69058;BME280;56128;37.534;-122.308;2023-06-04T00:59:38;100947.44;;;22.32;65.01
69058;BME280;56128;37.534;-122.308;2023-06-04T01:02:13;100939.66;;;22.14;65.02
69058;BME280;56128;37.534;-122.308;2023-06-04T01:07:21;100940.03;;;22.11;65.27
69058;BME280;56128;37.534;-122.308;2023-06-04T01:09:49;100942.94;;;22.09;65.75
69058;BME280;56128;37.534;-122.308;2023-06-04T01:12:16;100936.75;;;22.00;65.75
69058;BME280;56128;37.534;-122.308;2023-06-04T01:14:44;100934.56;;;21.96;66.27
69058;BME280;56128;37.534;-122.308;2023-06-04T01:17:19;100933.75;;;21.95;66.43
69058;BME280;56128;37.534;-122.308;2023-06-04T01:25:38;100940.59;;;21.76;66.36
69058;BME280;56128;37.534;-122.308;2023-06-04T01:28:07;100936.84;;;21.62;66.57
69058;BME280;56128;37.534;-122.308;2023-06-04T01:30:39;100939.50;;;21.47;65.87
69058;BME280;56128;37.534;-122.308;2023-06-04T01:33:19;100944.53;;;21.35;66.42
69058;BME280;56128;37.534;-122.308;2023-06-04T01:35:53;100934.94;;;21.24;66.48
69058;BME280;56128;37.534;-122.308;2023-06-04T01:38:21;100933.00;;;21.10;67.65
69058;BME280;56128;37.534;-122.308;2023-06-04T01:40:47;100938.34;;;21.03;67.86
69058;BME280;56128;37.534;-122.308;2023-06-04T01:43:15;100939.78;;;20.91;68.06
69058;BME280;56128;37.534;-122.308;2023-06-04T01:45:41;100935.59;;;20.80;68.59
69058;BME280;56128;37.534;-122.308;2023-06-04T01:48:07;100936.38;;;20.66;68.59
69058;BME280;56128;37.534;-122.308;2023-06-04T01:50:35;100952.19;;;20.62;68.96
69058;BME280;56128;37.534;-122.308;2023-06-04T01:53:01;100951.56;;;20.52;69.53
69058;BME280;56128;37.534;-122.308;2023-06-04T01:55:28;100950.97;;;20.33;68.80
69058;BME280;56128;37.534;-122.308;2023-06-04T01:58:00;100943.06;;;20.15;69.32
69058;BME280;56128;37.534;-122.308;2023-06-04T02:00:28;100959.41;;;19.99;70.20
69058;BME280;56128;37.534;-122.308;2023-06-04T02:02:55;100957.75;;;19.89;71.08
69058;BME280;56128;37.534;-122.308;2023-06-04T02:05:21;100953.69;;;19.77;71.66
69058;BME280;56128;37.534;-122.308;2023-06-04T02:07:48;100962.50;;;19.62;72.17
69058;BME280;56128;37.534;-122.308;2023-06-04T02:10:21;100960.50;;;19.48;72.44
69058;BME280;56128;37.534;-122.308;2023-06-04T02:13:01;100959.16;;;19.36;73.41
69058;BME280;56128;37.534;-122.308;2023-06-04T02:15:31;100963.56;;;19.28;75.45
69058;BME280;56128;37.534;-122.308;2023-06-04T02:18:00;100955.41;;;19.12;75.13
69058;BME280;56128;37.534;-122.308;2023-06-04T02:20:40;100959.84;;;19.13;76.14
69058;BME280;56128;37.534;-122.308;2023-06-04T02:23:06;100958.28;;;18.94;77.61
69058;BME280;56128;37.534;-122.308;2023-06-04T02:25:32;100957.78;;;18.90;77.91
69058;BME280;56128;37.534;-122.308;2023-06-04T02:27:58;100960.44;;;18.82;78.52
69058;BME280;56128;37.534;-122.308;2023-06-04T02:30:24;100968.88;;;18.71;79.96
69058;BME280;56128;37.534;-122.308;2023-06-04T02:32:51;100960.06;;;18.60;80.92
69058;BME280;56128;37.534;-122.308;2023-06-04T02:35:17;100962.72;;;18.52;82.05
69058;BME280;56128;37.534;-122.308;2023-06-04T02:37:44;100973.03;;;18.40;82.53
69058;BME280;56128;37.534;-122.308;2023-06-04T02:40:10;100967.53;;;18.24;83.74
69058;BME280;56128;37.534;-122.308;2023-06-04T02:42:36;100973.91;;;18.14;85.15
69058;BME280;56128;37.534;-122.308;2023-06-04T02:45:03;100965.44;;;18.09;85.68
69058;BME280;56128;37.534;-122.308;2023-06-04T02:47:29;100967.25;;;18.00;87.12
69058;BME280;56128;37.534;-122.308;2023-06-04T02:49:55;100970.72;;;17.93;87.11
69058;BME280;56128;37.534;-122.308;2023-06-04T02:52:22;100975.41;;;17.82;88.71
69058;BME280;56128;37.534;-122.308;2023-06-04T02:54:49;100979.94;;;17.74;90.81
69058;BME280;56128;37.534;-122.308;2023-06-04T02:57:18;100979.84;;;17.65;91.23
69058;BME280;56128;37.534;-122.308;2023-06-04T02:59:46;100979.09;;;17.55;92.37
69058;BME280;56128;37.534;-122.308;2023-06-04T03:02:12;100994.59;;;17.45;93.08
69058;BME280;56128;37.534;-122.308;2023-06-04T03:04:41;100987.56;;;17.34;93.66
69058;BME280;56128;37.534;-122.308;2023-06-04T03:07:09;100995.06;;;17.22;94.54
69058;BME280;56128;37.534;-122.308;2023-06-04T03:09:37;100998.69;;;17.13;95.50
69058;BME280;56128;37.534;-122.308;2023-06-04T03:12:04;101010.91;;;16.99;96.73
69058;BME280;56128;37.534;-122.308;2023-06-04T03:14:31;101004.84;;;16.87;98.48
69058;BME280;56128;37.534;-122.308;2023-06-04T03:16:59;101008.47;;;16.78;99.05
69058;BME280;56128;37.534;-122.308;2023-06-04T03:19:41;101004.16;;;16.57;100.00
69058;BME280;56128;37.534;-122.308;2023-06-04T03:22:09;101006.75;;;16.49;100.00
69058;BME280;56128;37.534;-122.308;2023-06-04T03:24:39;101008.38;;;16.42;100.00
69058;BME280;56128;37.534;-122.308;2023-06-04T03:27:07;101010.41;;;16.30;100.00
69058;BME280;56128;37.534;-122.308;2023-06-04T03:29:37;101003.94;;;16.13;100.00
69058;BME280;56128;37.534;-122.308;2023-06-04T03:32:03;101011.19;;;16.02;100.00
69058;BME280;56128;37.534;-122.308;2023-06-04T03:34:31;101011.69;;;15.88;100.00
69058;BME280;56128;37.534;-122.308;2023-06-04T03:36:57;101004.31;;;15.70;100.00
69058;BME280;56128;37.534;-122.308;2023-06-04T03:39:24;101014.25;;;15.60;100.00
69058;BME280;56128;37.534;-122.308;2023-06-04T03:41:52;101010.44;;;15.53;100.00
69058;BME280;56128;37.534;-122.308;2023-06-04T03:44:18;101004.06;;;15.44;100.00
69058;BME280;56128;37.534;-122.308;2023-06-04T03:46:45;101009.59;;;15.33;100.00
69058;BME280;56128;37.534;-122.308;2023-06-04T03:49:14;101008.03;;;15.20;100.00
69058;BME280;56128;37.534;-122.308;2023-06-04T03:51:43;100997.38;;;15.09;100.00
69058;BME280;56128;37.534;-122.308;2023-06-04T03:54:09;101006.91;;;15.03;100.00
69058;BME280;56128;37.534;-122.308;2023-06-04T03:56:35;101011.41;;;14.93;100.00
69058;BME280;56128;37.534;-122.308;2023-06-04T03:59:02;101009.69;;;14.82;100.00
69058;BME280;56128;37.534;-122.308;2023-06-04T04:01:28;101012.63;;;14.69;100.00
69058;BME280;56128;37.534;-122.308;2023-06-04T04:03:54;101010.59;;;14.61;100.00
69058;BME280;56128;37.534;-122.308;2023-06-04T04:06:21;101013.72;;;14.57;100.00
69058;BME280;56128;37.534;-122.308;2023-06-04T04:08:47;101020.06;;;14.46;100.00
69058;BME280;56128;37.534;-122.308;2023-06-04T04:11:17;101013.66;;;14.37;100.00
69058;BME280;56128;37.534;-122.308;2023-06-04T04:13:46;101010.06;;;14.27;100.00
69058;BME280;56128;37.534;-122.308;2023-06-04T04:16:12;101015.00;;;14.22;100.00
69058;BME280;56128;37.534;-122.308;2023-06-04T04:18:41;101017.66;;;14.12;100.00
69058;BME280;56128;37.534;-122.308;2023-06-04T04:21:11;101015.34;;;14.07;100.00
69058;BME280;56128;37.534;-122.308;2023-06-04T04:23:38;101009.22;;;13.95;100.00
69058;BME280;56128;37.534;-122.308;2023-06-04T04:26:08;101014.38;;;13.87;100.00
69058;BME280;56128;37.534;-122.308;2023-06-04T04:28:36;101018.94;;;13.87;100.00
69058;BME280;56128;37.534;-122.308;2023-06-04T04:31:02;101016.56;;;13.72;100.00
69058;BME280;56128;37.534;-122.308;2023-06-04T04:33:29;101021.94;;;13.72;100.00
69058;BME280;56128;37.534;-122.308;2023-06-04T04:35:58;101018.66;;;13.69;100.00
69058;BME280;56128;37.534;-122.308;2023-06-04T04:38:25;101013.94;;;13.61;100.00
69058;BME280;56128;37.534;-122.308;2023-06-04T04:40:54;101009.09;;;13.55;100.00
69058;BME280;56128;37.534;-122.308;2023-06-04T04:43:32;101023.03;;;13.48;100.00
69058;BME280;56128;37.534;-122.308;2023-06-04T04:45:59;101020.28;;;13.39;100.00
69058;BME280;56128;37.534;-122.308;2023-06-04T04:48:25;101028.47;;;13.37;100.00
69058;BME280;56128;37.534;-122.308;2023-06-04T04:50:52;101027.25;;;13.30;100.00
69058;BME280;56128;37.534;-122.308;2023-06-04T04:53:19;101022.13;;;13.27;100.00
69058;BME280;56128;37.534;-122.308;2023-06-04T04:55:45;101023.38;;;13.23;100.00
69058;BME280;56128;37.534;-122.308;2023-06-04T04:58:12;101021.22;;;13.17;100.00
69058;BME280;56128;37.534;-122.308;2023-06-04T05:00:38;101016.34;;;13.10;100.00
69058;BME280;56128;37.534;-122.308;2023-06-04T05:03:04;101016.84;;;13.04;100.00
69058;BME280;56128;37.534;-122.308;2023-06-04T05:05:32;101028.09;;;12.98;100.00
69058;BME280;56128;37.534;-122.308;2023-06-04T05:07:58;101019.56;;;12.93;100.00
69058;BME280;56128;37.534;-122.308;2023-06-04T05:10:24;101019.19;;;12.86;100.00
69058;BME280;56128;37.534;-122.308;2023-06-04T05:12:55;101017.63;;;12.83;100.00
69058;BME280;56128;37.534;-122.308;2023-06-04T05:15:22;101025.69;;;12.83;100.00
69058;BME280;56128;37.534;-122.308;2023-06-04T05:17:48;101019.22;;;12.75;100.00
69058;BME280;56128;37.534;-122.308;2023-06-04T05:20:15;101031.81;;;12.74;100.00
69058;BME280;56128;37.534;-122.308;2023-06-04T05:22:41;101034.16;;;12.68;100.00
69058;BME280;56128;37.534;-122.308;2023-06-04T05:25:09;101028.41;;;12.61;100.00
69058;BME280;56128;37.534;-122.308;2023-06-04T05:27:35;101038.44;;;12.59;100.00
69058;BME280;56128;37.534;-122.308;2023-06-04T05:30:05;101029.03;;;12.53;100.00
69058;BME280;56128;37.534;-122.308;2023-06-04T05:32:32;101021.34;;;12.48;100.00
69058;BME280;56128;37.534;-122.308;2023-06-04T05:35:01;101024.53;;;12.42;100.00
69058;BME280;56128;37.534;-122.308;2023-06-04T05:37:30;101017.94;;;12.35;100.00
69058;BME280;56128;37.534;-122.308;2023-06-04T05:39:59;101024.28;;;12.34;100.00
69058;BME280;56128;37.534;-122.308;2023-06-04T05:42:25;101014.41;;;12.23;100.00
69058;BME280;56128;37.534;-122.308;2023-06-04T05:44:51;101022.56;;;12.22;100.00
69058;BME280;56128;37.534;-122.308;2023-06-04T05:47:18;101016.72;;;12.16;100.00
69058;BME280;56128;37.534;-122.308;2023-06-04T05:49:44;101019.53;;;12.15;100.00
69058;BME280;56128;37.534;-122.308;2023-06-04T05:52:10;101024.28;;;12.11;100.00
69058;BME280;56128;37.534;-122.308;2023-06-04T05:54:36;101023.03;;;12.04;100.00
69058;BME280;56128;37.534;-122.308;2023-06-04T05:57:04;101019.03;;;11.98;100.00
69058;BME280;56128;37.534;-122.308;2023-06-04T05:59:31;101013.03;;;11.95;100.00
69058;BME280;56128;37.534;-122.308;2023-06-04T06:01:57;101019.56;;;11.91;100.00
69058;BME280;56128;37.534;-122.308;2023-06-04T06:04:27;101022.50;;;11.88;100.00
69058;BME280;56128;37.534;-122.308;2023-06-04T06:06:53;101023.59;;;11.85;100.00
69058;BME280;56128;37.534;-122.308;2023-06-04T06:09:19;101022.13;;;11.81;100.00
69058;BME280;56128;37.534;-122.308;2023-06-04T06:11:46;101014.66;;;11.73;100.00
69058;BME280;56128;37.534;-122.308;2023-06-04T06:14:12;101019.94;;;11.75;100.00
69058;BME280;56128;37.534;-122.308;2023-06-04T06:16:38;101014.16;;;11.68;100.00
69058;BME280;56128;37.534;-122.308;2023-06-04T06:19:04;101022.22;;;11.68;100.00
69058;BME280;56128;37.534;-122.308;2023-06-04T06:21:30;101022.22;;;11.68;100.00
69058;BME280;56128;37.534;-122.308;2023-06-04T06:23:56;101019.66;;;11.66;100.00
69058;BME280;56128;37.534;-122.308;2023-06-04T06:26:25;101010.50;;;11.58;100.00
69058;BME280;56128;37.534;-122.308;2023-06-04T06:28:51;101006.97;;;11.57;100.00
69058;BME280;56128;37.534;-122.308;2023-06-04T06:31:17;101024.16;;;11.55;100.00
69058;BME280;56128;37.534;-122.308;2023-06-04T06:33:44;101017.28;;;11.50;100.00
69058;BME280;56128;37.534;-122.308;2023-06-04T06:36:10;101025.56;;;11.47;100.00
69058;BME280;56128;37.534;-122.308;2023-06-04T06:38:40;101012.50;;;11.43;100.00
69058;BME280;56128;37.534;-122.308;2023-06-04T06:41:07;101018.13;;;11.40;100.00
69058;BME280;56128;37.534;-122.308;2023-06-04T06:43:33;101017.25;;;11.39;100.00
69058;BME280;56128;37.534;-122.308;2023-06-04T06:46:00;101016.53;;;11.37;100.00
69058;BME280;56128;37.534;-122.308;2023-06-04T06:48:26;101008.59;;;11.35;100.00
69058;BME280;56128;37.534;-122.308;2023-06-04T06:50:53;101017.72;;;11.33;100.00
69058;BME280;56128;37.534;-122.308;2023-06-04T06:53:19;101018.81;;;11.30;100.00
69058;BME280;56128;37.534;-122.308;2023-06-04T06:55:45;101021.47;;;11.30;100.00
69058;BME280;56128;37.534;-122.308;2023-06-04T06:58:11;101022.44;;;11.29;100.00
69058;BME280;56128;37.534;-122.308;2023-06-04T07:00:38;101018.16;;;11.27;100.00
69058;BME280;56128;37.534;-122.308;2023-06-04T07:03:04;101018.41;;;11.24;100.00
69058;BME280;56128;37.534;-122.308;2023-06-04T07:05:30;101018.88;;;11.17;100.00
69058;BME280;56128;37.534;-122.308;2023-06-04T07:07:56;101013.13;;;11.11;100.00
69058;BME280;56128;37.534;-122.308;2023-06-04T07:10:24;101014.94;;;11.10;100.00
69058;BME280;56128;37.534;-122.308;2023-06-04T07:12:50;101014.81;;;11.12;100.00
69058;BME280;56128;37.534;-122.308;2023-06-04T07:15:17;101012.25;;;11.10;100.00
69058;BME280;56128;37.534;-122.308;2023-06-04T07:17:44;101012.50;;;11.07;100.00
69058;BME280;56128;37.534;-122.308;2023-06-04T07:20:10;101010.28;;;11.01;100.00
69058;BME280;56128;37.534;-122.308;2023-06-04T07:22:37;101021.63;;;11.04;100.00
69058;BME280;56128;37.534;-122.308;2023-06-04T07:25:04;101014.66;;;11.02;100.00
69058;BME280;56128;37.534;-122.308;2023-06-04T07:27:31;101006.34;;;10.94;100.00
69058;BME280;56128;37.534;-122.308;2023-06-04T07:29:57;101017.16;;;10.92;100.00
69058;BME280;56128;37.534;-122.308;2023-06-04T07:32:23;101018.38;;;10.88;100.00
69058;BME280;56128;37.534;-122.308;2023-06-04T07:34:49;101011.50;;;10.84;100.00
69058;BME280;56128;37.534;-122.308;2023-06-04T07:37:16;101025.78;;;10.84;100.00
69058;BME280;56128;37.534;-122.308;2023-06-04T07:39:42;101022.22;;;10.84;100.00
69058;BME280;56128;37.534;-122.308;2023-06-04T07:42:08;101025.97;;;10.81;100.00
69058;BME280;56128;37.534;-122.308;2023-06-04T07:44:36;101017.31;;;10.78;100.00
69058;BME280;56128;37.534;-122.308;2023-06-04T07:47:03;101009.63;;;10.73;100.00
69058;BME280;56128;37.534;-122.308;2023-06-04T07:49:29;101010.94;;;10.67;100.00
69058;BME280;56128;37.534;-122.308;2023-06-04T07:51:55;101011.88;;;10.66;100.00
69058;BME280;56128;37.534;-122.308;2023-06-04T07:54:21;101006.91;;;10.62;100.00
69058;BME280;56128;37.534;-122.308;2023-06-04T07:56:48;101008.06;;;10.58;100.00
69058;BME280;56128;37.534;-122.308;2023-06-04T07:59:14;101013.53;;;10.56;100.00
69058;BME280;56128;37.534;-122.308;2023-06-04T08:01:40;101010.00;;;10.55;100.00
69058;BME280;56128;37.534;-122.308;2023-06-04T08:04:09;101010.09;;;10.54;100.00
69058;BME280;56128;37.534;-122.308;2023-06-04T08:06:36;101006.59;;;10.53;100.00
69058;BME280;56128;37.534;-122.308;2023-06-04T08:09:05;101009.25;;;10.53;100.00
69058;BME280;56128;37.534;-122.308;2023-06-04T08:11:32;101015.81;;;10.49;100.00
69058;BME280;56128;37.534;-122.308;2023-06-04T08:13:58;101016.88;;;10.47;100.00
69058;BME280;56128;37.534;-122.308;2023-06-04T08:16:25;101014.53;;;10.42;100.00
69058;BME280;56128;37.534;-122.308;2023-06-04T08:18:51;101007.59;;;10.39;100.00
69058;BME280;56128;37.534;-122.308;2023-06-04T08:21:26;101015.59;;;10.39;100.00
69058;BME280;56128;37.534;-122.308;2023-06-04T08:23:52;101017.44;;;10.39;100.00
69058;BME280;56128;37.534;-122.308;2023-06-04T08:26:19;101016.44;;;10.40;100.00
69058;BME280;56128;37.534;-122.308;2023-06-04T08:28:48;101007.03;;;10.34;100.00
69058;BME280;56128;37.534;-122.308;2023-06-04T08:31:14;101019.75;;;10.31;100.00
69058;BME280;56128;37.534;-122.308;2023-06-04T08:33:44;101026.31;;;10.27;100.00
69058;BME280;56128;37.534;-122.308;2023-06-04T08:36:10;101030.88;;;10.24;100.00
69058;BME280;56128;37.534;-122.308;2023-06-04T08:38:36;101034.53;;;10.23;100.00
69058;BME280;56128;37.534;-122.308;2023-06-04T08:41:15;101031.13;;;10.21;100.00
69058;BME280;56128;37.534;-122.308;2023-06-04T08:43:43;101017.75;;;10.21;100.00
69058;BME280;56128;37.534;-122.308;2023-06-04T08:46:11;101011.41;;;10.22;100.00
69058;BME280;56128;37.534;-122.308;2023-06-04T08:48:38;101012.41;;;10.21;100.00
69058;BME280;56128;37.534;-122.308;2023-06-04T08:51:06;101007.06;;;10.21;100.00
69058;BME280;56128;37.534;-122.308;2023-06-04T08:53:35;101001.16;;;10.16;100.00
69058;BME280;56128;37.534;-122.308;2023-06-04T08:56:02;101001.38;;;10.13;100.00
69058;BME280;56128;37.534;-122.308;2023-06-04T08:58:32;101001.56;;;10.10;100.00
69058;BME280;56128;37.534;-122.308;2023-06-04T09:01:01;101004.38;;;10.08;100.00
69058;BME280;56128;37.534;-122.308;2023-06-04T09:03:32;100995.69;;;10.05;100.00
69058;BME280;56128;37.534;-122.308;2023-06-04T09:05:59;101006.50;;;10.03;100.00
69058;BME280;56128;37.534;-122.308;2023-06-04T09:08:27;100998.59;;;10.02;100.00
69058;BME280;56128;37.534;-122.308;2023-06-04T09:10:57;100992.63;;;9.98;100.00
69058;BME280;56128;37.534;-122.308;2023-06-04T09:13:28;100996.13;;;9.99;100.00
69058;BME280;56128;37.534;-122.308;2023-06-04T09:16:04;100993.56;;;9.97;100.00
69058;BME280;56128;37.534;-122.308;2023-06-04T09:18:33;100983.94;;;9.95;100.00
69058;BME280;56128;37.534;-122.308;2023-06-04T09:21:08;100992.19;;;9.91;100.00
69058;BME280;56128;37.534;-122.308;2023-06-04T09:23:45;100988.00;;;9.87;100.00
69058;BME280;56128;37.534;-122.308;2023-06-04T09:26:12;100985.44;;;9.86;100.00
69058;BME280;56128;37.534;-122.308;2023-06-04T09:28:43;100993.59;;;9.84;100.00
69058;BME280;56128;37.534;-122.308;2023-06-04T09:31:16;100992.94;;;9.81;100.00
69058;BME280;56128;37.534;-122.308;2023-06-04T09:33:47;100988.88;;;9.88;100.00
69058;BME280;56128;37.534;-122.308;2023-06-04T09:36:13;100983.53;;;9.88;100.00
69058;BME280;56128;37.534;-122.308;2023-06-04T09:38:40;100975.41;;;9.89;100.00
69058;BME280;56128;37.534;-122.308;2023-06-04T09:41:17;100980.56;;;9.93;100.00
69058;BME280;56128;37.534;-122.308;2023-06-04T09:43:45;100974.56;;;9.89;100.00
69058;BME280;56128;37.534;-122.308;2023-06-04T09:46:16;100983.53;;;9.88;100.00
69058;BME280;56128;37.534;-122.308;2023-06-04T09:48:43;100984.72;;;9.84;100.00
69058;BME280;56128;37.534;-122.308;2023-06-04T09:51:12;100979.47;;;9.82;100.00
69058;BME280;56128;37.534;-122.308;2023-06-04T09:53:39;100978.72;;;9.80;100.00
69058;BME280;56128;37.534;-122.308;2023-06-04T09:56:06;100970.78;;;9.79;100.00
69058;BME280;56128;37.534;-122.308;2023-06-04T09:58:33;100970.91;;;9.77;100.00
69058;BME280;56128;37.534;-122.308;2023-06-04T10:01:01;100966.97;;;9.83;100.00
69058;BME280;56128;37.534;-122.308;2023-06-04T10:03:33;100976.91;;;9.81;100.00
69058;BME280;56128;37.534;-122.308;2023-06-04T10:06:03;100983.84;;;9.83;100.00
69058;BME280;56128;37.534;-122.308;2023-06-04T10:08:30;100975.31;;;9.78;100.00
69058;BME280;56128;37.534;-122.308;2023-06-04T10:10:59;100982.56;;;9.76;100.00
69058;BME280;56128;37.534;-122.308;2023-06-04T10:14:10;100972.84;;;9.75;100.00
69058;BME280;56128;37.534;-122.308;2023-06-04T10:16:17;100971.88;;;9.76;100.00
69058;BME280;56128;37.534;-122.308;2023-06-04T10:18:44;100980.66;;;9.78;100.00
69058;BME280;56128;37.534;-122.308;2023-06-04T10:21:13;100974.78;;;9.73;100.00
69058;BME280;56128;37.534;-122.308;2023-06-04T10:23:41;100981.06;;;9.72;100.00
69058;BME280;56128;37.534;-122.308;2023-06-04T10:26:13;100975.63;;;9.73;100.00
69058;BME280;56128;37.534;-122.308;2023-06-04T10:28:41;100973.06;;;9.72;100.00
69058;BME280;56128;37.534;-122.308;2023-06-04T10:31:11;100979.59;;;9.68;100.00
69058;BME280;56128;37.534;-122.308;2023-06-04T10:33:38;100979.78;;;9.65;100.00
69058;BME280;56128;37.534;-122.308;2023-06-04T10:36:22;100968.03;;;9.67;100.00
69058;BME280;56128;37.534;-122.308;2023-06-04T10:38:49;100974.25;;;9.68;100.00
69058;BME280;56128;37.534;-122.308;2023-06-04T10:41:18;100970.03;;;9.64;100.00
69058;BME280;56128;37.534;-122.308;2023-06-04T10:43:48;100968.91;;;9.68;100.00
69058;BME280;56128;37.534;-122.308;2023-06-04T10:46:20;100972.53;;;9.67;100.00
69058;BME280;56128;37.534;-122.308;2023-06-04T10:48:50;100970.81;;;9.66;100.00
69058;BME280;56128;37.534;-122.308;2023-06-04T10:51:29;100973.16;;;9.57;100.00
69058;BME280;56128;37.534;-122.308;2023-06-04T10:53:57;100968.56;;;9.59;100.00
69058;BME280;56128;37.534;-122.308;2023-06-04T10:56:28;100962.69;;;9.54;100.00
69058;BME280;56128;37.534;-122.308;2023-06-04T10:58:55;100961.72;;;9.55;100.00
69058;BME280;56128;37.534;-122.308;2023-06-04T11:01:25;100961.50;;;9.58;100.00
69058;BME280;56128;37.534;-122.308;2023-06-04T11:03:52;100955.41;;;9.56;100.00
69058;BME280;56128;37.534;-122.308;2023-06-04T11:06:18;100956.16;;;9.58;100.00
69058;BME280;56128;37.534;-122.308;2023-06-04T11:08:46;100952.53;;;9.59;100.00
69058;BME280;56128;37.534;-122.308;2023-06-04T11:11:16;100947.53;;;9.55;100.00
69058;BME280;56128;37.534;-122.308;2023-06-04T11:13:43;100951.22;;;9.52;100.00
69058;BME280;56128;37.534;-122.308;2023-06-04T11:16:19;100952.41;;;9.48;100.00
69058;BME280;56128;37.534;-122.308;2023-06-04T11:18:56;100953.47;;;9.46;100.00
69058;BME280;56128;37.534;-122.308;2023-06-04T11:21:24;100949.19;;;9.43;100.00
69058;BME280;56128;37.534;-122.308;2023-06-04T11:24:00;100948.56;;;9.39;100.00
69058;BME280;56128;37.534;-122.308;2023-06-04T11:26:56;100958.16;;;9.42;100.00
69058;BME280;56128;37.534;-122.308;2023-06-04T11:29:26;100954.78;;;9.40;100.00
69058;BME280;56128;37.534;-122.308;2023-06-04T11:31:52;100954.97;;;9.37;100.00
69058;BME280;56128;37.534;-122.308;2023-06-04T11:34:28;100957.53;;;9.38;100.00
69058;BME280;56128;37.534;-122.308;2023-06-04T11:36:55;100963.75;;;9.39;100.00
69058;BME280;56128;37.534;-122.308;2023-06-04T11:39:22;100951.34;;;9.38;100.00
69058;BME280;56128;37.534;-122.308;2023-06-04T11:41:50;100957.53;;;9.38;100.00
69058;BME280;56128;37.534;-122.308;2023-06-04T11:44:20;100959.53;;;9.35;100.00
69058;BME280;56128;37.534;-122.308;2023-06-04T11:46:46;100960.31;;;9.37;100.00
69058;BME280;56128;37.534;-122.308;2023-06-04T11:49:18;100962.13;;;9.36;100.00
69058;BME280;56128;37.534;-122.308;2023-06-04T11:51:48;100956.16;;;9.33;100.00
69058;BME280;56128;37.534;-122.308;2023-06-04T11:54:16;100958.81;;;9.33;100.00
69058;BME280;56128;37.534;-122.308;2023-06-04T11:56:43;100951.75;;;9.32;100.00
69058;BME280;56128;37.534;-122.308;2023-06-04T11:59:13;100957.22;;;9.30;100.00
69058;BME280;56128;37.534;-122.308;2023-06-04T12:01:41;100958.06;;;9.31;100.00
69058;BME280;56128;37.534;-122.308;2023-06-04T12:04:17;100962.56;;;9.30;100.00
69058;BME280;56128;37.534;-122.308;2023-06-04T12:06:55;100949.72;;;9.22;100.00
69058;BME280;56128;37.534;-122.308;2023-06-04T12:09:28;100954.72;;;9.27;100.00
69058;BME280;56128;37.534;-122.308;2023-06-04T12:11:59;100954.84;;;9.25;100.00
69058;BME280;56128;37.534;-122.308;2023-06-04T12:14:26;100956.75;;;9.23;100.00
69058;BME280;56128;37.534;-122.308;2023-06-04T12:16:56;100964.75;;;9.23;100.00
69058;BME280;56128;37.534;-122.308;2023-06-04T12:19:22;100954.19;;;9.22;100.00
69058;BME280;56128;37.534;-122.308;2023-06-04T12:24:29;100956.19;;;9.18;100.00
69058;BME280;56128;37.534;-122.308;2023-06-04T12:27:09;100950.03;;;9.18;100.00
69058;BME280;56128;37.534;-122.308;2023-06-04T12:29:37;100954.47;;;9.17;100.00
69058;BME280;56128;37.534;-122.308;2023-06-04T12:32:10;100958.78;;;9.20;100.00